Time;durP1;ratioP1;P1;durP2;ratioP2;P2;SDS_P1;SDS_P2;PMS_P1;PMS_P2;Temp;Humidity;BMP_temperature;BMP_pressure;BME280_temperature;BME280_humidity;BME280_pressure;Samples;Min_cycle;Max_cycle;Signal;HPM_P1;HPM_P2
2023/07/16 02:00:22;;;;;;;7.25;4.12;;;;;;;;;;4937785;28;20271;-80
2023/07/16 02:02:56;;;;;;;7.57;3.97;;;;;;;;;;4292979;33;20104;-79
2023/07/16 02:05:22;;;;;;;7.00;4.10;;;;;;;;;;4294279;33;20053;-79
2023/07/16 02:07:48;;;;;;;5.68;3.90;;;;;;;;;;4293520;33;20064;-80
2023/07/16 02:10:15;;;;;;;5.93;3.90;;;;;;;;;;4295199;33;20045;-79
2023/07/16 02:12:41;;;;;;;4.82;4.37;;;;;;;;;;4293904;33;20049;-79
2023/07/16 02:15:07;;;;;;;4.22;3.58;;;;;;;;;;4294759;33;20129;-80
2023/07/16 02:17:34;;;;;;;6.22;3.97;;;;;;;;;;4294558;33;20168;-80
2023/07/16 02:20:00;;;;;;;5.87;4.15;;;;;;;;;;4292125;33;20079;-78
2023/07/16 02:22:26;;;;;;;8.98;4.45;;;;;;;;;;4293784;33;20079;-79
2023/07/16 02:24:53;;;;;;;5.70;4.05;;;;;;;;;;4294034;33;20053;-79
2023/07/16 02:27:19;;;;;;;4.53;4.07;;;;;;;;;;4295466;33;20074;-79
2023/07/16 02:29:45;;;;;;;11.43;4.37;;;;;;;;;;4295551;33;20463;-79
2023/07/16 02:32:11;;;;;;;8.43;4.32;;;;;;;;;;4260852;33;20069;-79
2023/07/16 02:34:38;;;;;;;5.55;4.00;;;;;;;;;;4264143;33;20053;-78
2023/07/16 02:37:03;;;;;;;4.30;3.53;;;;;;;;;;4263291;33;20234;-78
2023/07/16 02:39:30;;;;;;;8.43;4.40;;;;;;;;;;4249140;33;20042;-79
2023/07/16 02:42:02;;;;;;;4.40;3.87;;;;;;;;;;4232474;33;20653;-79
2023/07/16 02:44:29;;;;;;;5.15;4.25;;;;;;;;;;4233686;33;20086;-79
2023/07/16 02:46:55;;;;;;;4.82;4.40;;;;;;;;;;4235640;33;20042;-79
2023/07/16 02:49:22;;;;;;;5.22;3.78;;;;;;;;;;4235560;33;20513;-79
2023/07/16 02:51:48;;;;;;;6.22;4.47;;;;;;;;;;4235452;33;20054;-79
2023/07/16 02:54:14;;;;;;;4.28;3.87;;;;;;;;;;4218675;33;20042;-79
2023/07/16 02:56:47;;;;;;;18.30;4.28;;;;;;;;;;4222091;33;20219;-78
2023/07/16 02:59:13;;;;;;;7.35;4.40;;;;;;;;;;4220704;33;20081;-79
2023/07/16 03:01:39;;;;;;;7.75;3.95;;;;;;;;;;4195087;34;20080;-80
2023/07/16 03:04:05;;;;;;;5.35;4.55;;;;;;;;;;4199794;34;20050;-81
2023/07/16 03:06:31;;;;;;;7.25;4.30;;;;;;;;;;4206657;34;20070;-81
2023/07/16 03:08:58;;;;;;;7.68;4.97;;;;;;;;;;4206784;34;20039;-81
2023/07/16 03:11:24;;;;;;;5.25;4.53;;;;;;;;;;4232570;33;20663;-80
2023/07/16 03:13:50;;;;;;;6.62;4.70;;;;;;;;;;4242295;33;20072;-81
2023/07/16 03:16:16;;;;;;;9.38;4.53;;;;;;;;;;4238174;33;20050;-80
2023/07/16 03:18:43;;;;;;;4.95;3.97;;;;;;;;;;4248860;33;20979;-81
2023/07/16 03:21:09;;;;;;;10.85;4.87;;;;;;;;;;4234587;33;20064;-79
2023/07/16 03:23:36;;;;;;;10.65;4.50;;;;;;;;;;4206454;34;20078;-80
2023/07/16 03:26:02;;;;;;;4.95;4.45;;;;;;;;;;4228929;33;20063;-81
2023/07/16 03:28:29;;;;;;;5.30;4.28;;;;;;;;;;4233255;33;20058;-80
2023/07/16 03:30:55;;;;;;;5.53;4.70;;;;;;;;;;4243466;33;20125;-80
2023/07/16 03:33:21;;;;;;;12.37;5.30;;;;;;;;;;4206285;34;20058;-78
2023/07/16 03:35:48;;;;;;;8.55;3.90;;;;;;;;;;4213619;34;20385;-79
2023/07/16 03:38:17;;;;;;;8.32;4.90;;;;;;;;;;4202302;34;20369;-79
2023/07/16 03:40:45;;;;;;;6.57;4.43;;;;;;;;;;4200442;34;20106;-78
2023/07/16 03:43:12;;;;;;;14.52;4.47;;;;;;;;;;4202475;34;20454;-80
2023/07/16 03:45:38;;;;;;;6.45;4.30;;;;;;;;;;4198461;34;20073;-79
2023/07/16 03:48:04;;;;;;;6.28;4.15;;;;;;;;;;4202009;34;20410;-80
2023/07/16 03:50:31;;;;;;;5.55;4.12;;;;;;;;;;4201684;34;20043;-80
2023/07/16 03:52:57;;;;;;;5.15;4.40;;;;;;;;;;4195086;34;20170;-79
2023/07/16 03:55:23;;;;;;;6.40;5.28;;;;;;;;;;4217137;34;20047;-79
2023/07/16 03:57:49;;;;;;;6.60;4.90;;;;;;;;;;4222861;34;20419;-79
2023/07/16 04:00:16;;;;;;;4.70;4.20;;;;;;;;;;4223590;34;20055;-79
2023/07/16 04:02:46;;;;;;;12.57;4.90;;;;;;;;;;4206932;34;20059;-80
2023/07/16 04:05:13;;;;;;;5.95;4.60;;;;;;;;;;4220578;33;20046;-78
2023/07/16 04:07:39;;;;;;;6.62;5.03;;;;;;;;;;4232867;33;20076;-79
2023/07/16 04:10:06;;;;;;;4.12;3.67;;;;;;;;;;4217271;34;20116;-79
2023/07/16 04:12:32;;;;;;;4.87;4.37;;;;;;;;;;4221682;34;20100;-79
2023/07/16 04:14:58;;;;;;;9.82;4.53;;;;;;;;;;4222193;34;20046;-80
2023/07/16 04:17:25;;;;;;;4.82;4.30;;;;;;;;;;4208662;34;20092;-80
2023/07/16 04:19:51;;;;;;;5.95;4.00;;;;;;;;;;4208983;34;20389;-79
2023/07/16 04:22:17;;;;;;;6.35;4.35;;;;;;;;;;4167137;34;20375;-79
2023/07/16 04:24:44;;;;;;;12.37;4.53;;;;;;;;;;4153886;34;20104;-79
2023/07/16 04:27:10;;;;;;;6.15;4.28;;;;;;;;;;4145417;34;20460;-79
2023/07/16 04:29:36;;;;;;;4.68;4.28;;;;;;;;;;4139919;34;20052;-78
2023/07/16 04:32:03;;;;;;;5.12;4.50;;;;;;;;;;4144050;34;20063;-78
2023/07/16 04:34:28;;;;;;;10.00;4.12;;;;;;;;;;4164117;34;20460;-78
2023/07/16 04:36:55;;;;;;;7.30;4.47;;;;;;;;;;4176387;34;20048;-79
2023/07/16 04:39:21;;;;;;;5.15;4.57;;;;;;;;;;4175485;34;20381;-78
2023/07/16 04:41:47;;;;;;;5.47;4.45;;;;;;;;;;4199547;34;20059;-79
2023/07/16 04:44:13;;;;;;;5.68;4.15;;;;;;;;;;4208074;34;20147;-78
2023/07/16 04:46:39;;;;;;;4.32;3.92;;;;;;;;;;4208325;34;20048;-79
2023/07/16 04:49:06;;;;;;;9.60;4.70;;;;;;;;;;4222912;33;20106;-79
2023/07/16 04:51:32;;;;;;;4.80;4.00;;;;;;;;;;4233072;33;20076;-79
2023/07/16 04:53:59;;;;;;;7.68;4.65;;;;;;;;;;4234770;33;20054;-79
2023/07/16 04:56:25;;;;;;;10.00;4.40;;;;;;;;;;4264031;33;20068;-78
2023/07/16 04:58:51;;;;;;;11.55;4.47;;;;;;;;;;4286233;33;20067;-78
2023/07/16 05:01:18;;;;;;;7.60;5.50;;;;;;;;;;4287300;33;20075;-79
2023/07/16 05:03:44;;;;;;;6.10;5.00;;;;;;;;;;4262984;33;20034;-78
2023/07/16 05:06:10;;;;;;;7.45;4.75;;;;;;;;;;4264571;33;20449;-77
2023/07/16 05:08:37;;;;;;;10.27;4.72;;;;;;;;;;4265076;33;20103;-79
2023/07/16 05:11:04;;;;;;;8.00;5.25;;;;;;;;;;4263127;33;20067;-79
2023/07/16 05:13:30;;;;;;;4.95;4.22;;;;;;;;;;4234091;33;20165;-80
2023/07/16 05:15:57;;;;;;;6.60;4.82;;;;;;;;;;4235814;33;20124;-80
2023/07/16 05:18:23;;;;;;;4.60;4.20;;;;;;;;;;4234523;33;20073;-80
2023/07/16 05:20:49;;;;;;;6.93;4.00;;;;;;;;;;4233415;33;20491;-79
2023/07/16 05:23:16;;;;;;;6.95;4.28;;;;;;;;;;4236083;33;20046;-79
2023/07/16 05:25:49;;;;;;;6.12;4.47;;;;;;;;;;4218715;34;20055;-79
2023/07/16 05:28:15;;;;;;;4.93;4.43;;;;;;;;;;4221696;34;20126;-79
2023/07/16 05:30:48;;;;;;;8.18;3.90;;;;;;;;;;4220726;34;20055;-79
2023/07/16 05:33:14;;;;;;;4.45;4.03;;;;;;;;;;4221168;34;20050;-79
2023/07/16 05:35:42;;;;;;;14.15;5.05;;;;;;;;;;4225496;33;20039;-79
2023/07/16 05:38:08;;;;;;;7.40;3.62;;;;;;;;;;4227778;33;20074;-79
2023/07/16 05:40:34;;;;;;;9.82;4.00;;;;;;;;;;4222754;34;20043;-79
2023/07/16 05:43:00;;;;;;;6.93;3.70;;;;;;;;;;4206905;34;20487;-76
2023/07/16 05:45:26;;;;;;;8.02;3.95;;;;;;;;;;4222317;33;20070;-77
2023/07/16 05:47:53;;;;;;;16.62;5.15;;;;;;;;;;4221684;33;20047;-77
2023/07/16 05:50:19;;;;;;;3.87;3.58;;;;;;;;;;4221501;33;20944;-76
2023/07/16 05:52:47;;;;;;;10.45;4.45;;;;;;;;;;4220586;34;20444;-78
2023/07/16 05:55:13;;;;;;;4.25;3.42;;;;;;;;;;4220764;34;20066;-78
2023/07/16 05:57:40;;;;;;;14.40;4.65;;;;;;;;;;4227960;33;20051;-80
2023/07/16 06:00:06;;;;;;;8.73;3.75;;;;;;;;;;4225837;33;20054;-80
2023/07/16 06:02:37;;;;;;;;;;;;;;;;;;4243501;33;20527;-79
2023/07/16 06:05:04;;;;;;;5.18;4.00;;;;;;;;;;4248775;33;20006;-80
2023/07/16 06:07:31;;;;;;;10.77;4.12;;;;;;;;;;4249031;33;20442;-79
2023/07/16 06:09:57;;;;;;;10.38;4.28;;;;;;;;;;4248818;33;20174;-80
2023/07/16 06:12:24;;;;;;;6.10;4.00;;;;;;;;;;4249632;33;20538;-83
2023/07/16 06:14:50;;;;;;;5.03;3.55;;;;;;;;;;4272899;33;20045;-79
2023/07/16 06:17:17;;;;;;;5.40;3.58;;;;;;;;;;4281587;33;20092;-81
2023/07/16 06:19:43;;;;;;;4.00;3.70;;;;;;;;;;4278786;33;20057;-80
2023/07/16 06:22:09;;;;;;;7.15;4.05;;;;;;;;;;4277441;33;20045;-80
2023/07/16 06:24:35;;;;;;;4.75;4.28;;;;;;;;;;4277942;33;20063;-77
2023/07/16 06:27:02;;;;;;;11.60;4.68;;;;;;;;;;4264139;33;20076;-80
2023/07/16 06:29:28;;;;;;;5.60;3.97;;;;;;;;;;4265755;33;20383;-79
2023/07/16 06:31:56;;;;;;;4.93;4.47;;;;;;;;;;4265560;33;20045;-79
2023/07/16 06:34:22;;;;;;;13.98;4.43;;;;;;;;;;4268178;33;20067;-79
2023/07/16 06:36:49;;;;;;;5.65;4.53;;;;;;;;;;4274907;33;20105;-79
2023/07/16 06:39:15;;;;;;;5.18;4.65;;;;;;;;;;4272904;33;20049;-79
2023/07/16 06:41:41;;;;;;;9.02;4.62;;;;;;;;;;4232895;33;20043;-79
2023/07/16 06:44:07;;;;;;;4.60;4.20;;;;;;;;;;4219384;34;20076;-78
2023/07/16 06:46:34;;;;;;;5.78;4.30;;;;;;;;;;4219302;34;20051;-80
2023/07/16 06:49:01;;;;;;;5.82;4.53;;;;;;;;;;4203106;34;20079;-77
2023/07/16 06:51:29;;;;;;;5.00;4.28;;;;;;;;;;4207331;34;20079;-77
2023/07/16 06:53:55;;;;;;;5.78;4.82;;;;;;;;;;4202703;34;20085;-78
2023/07/16 06:56:22;;;;;;;15.30;4.95;;;;;;;;;;4191589;34;20044;-78
2023/07/16 06:58:48;;;;;;;4.78;4.37;;;;;;;;;;4203061;34;20040;-78
2023/07/16 07:01:15;;;;;;;7.87;4.30;;;;;;;;;;4211001;33;20430;-81
2023/07/16 07:03:41;;;;;;;7.82;4.78;;;;;;;;;;4190058;34;20036;-79
2023/07/16 07:06:10;;;;;;;8.55;5.28;;;;;;;;;;4192372;34;20061;-82
2023/07/16 07:08:40;;;;;;;6.75;4.82;;;;;;;;;;4189660;34;20052;-82
2023/07/16 07:11:07;;;;;;;13.52;4.07;;;;;;;;;;4197511;34;20081;-81
2023/07/16 07:13:34;;;;;;;5.18;4.30;;;;;;;;;;4196081;34;20041;-80
2023/07/16 07:16:00;;;;;;;7.35;4.35;;;;;;;;;;4196726;34;20055;-81
2023/07/16 07:18:26;;;;;;;5.00;4.40;;;;;;;;;;4181861;34;20109;-79
2023/07/16 07:20:53;;;;;;;10.30;4.22;;;;;;;;;;4191677;34;20081;-85
2023/07/16 07:23:19;;;;;;;6.50;4.15;;;;;;;;;;4194836;34;20043;-81
2023/07/16 07:25:49;;;;;;;4.70;4.30;;;;;;;;;;4195378;34;20077;-78
2023/07/16 07:28:14;;;;;;;7.43;3.97;;;;;;;;;;4217112;33;20053;-82
2023/07/16 07:30:41;;;;;;;4.90;4.30;;;;;;;;;;4226434;33;20059;-81
2023/07/16 07:33:07;;;;;;;6.62;3.85;;;;;;;;;;4223971;34;20046;-80
2023/07/16 07:35:33;;;;;;;24.70;4.65;;;;;;;;;;4236169;33;20066;-78
2023/07/16 07:37:59;;;;;;;5.43;4.43;;;;;;;;;;4223624;34;20054;-78
2023/07/16 07:40:26;;;;;;;5.18;4.28;;;;;;;;;;4223758;33;20902;-79
2023/07/16 07:42:52;;;;;;;7.22;3.65;;;;;;;;;;4210671;34;20559;-79
2023/07/16 07:45:18;;;;;;;12.25;4.00;;;;;;;;;;4210459;34;20047;-80
2023/07/16 07:47:44;;;;;;;7.55;4.43;;;;;;;;;;4210605;34;20051;-78
2023/07/16 07:50:11;;;;;;;5.50;4.12;;;;;;;;;;4220875;33;20511;-79
2023/07/16 07:52:37;;;;;;;6.18;3.95;;;;;;;;;;4212744;33;20135;-78
2023/07/16 07:55:04;;;;;;;11.57;4.15;;;;;;;;;;4226093;33;20051;-80
2023/07/16 07:57:30;;;;;;;4.68;4.28;;;;;;;;;;4225414;33;20516;-80
2023/07/16 08:00:00;;;;;;;10.65;6.68;;;;;;;;;;4213083;34;20062;-81
2023/07/16 08:02:28;;;;;;;8.70;4.25;;;;;;;;;;4220590;33;20460;-83
2023/07/16 08:04:55;;;;;;;15.13;4.32;;;;;;;;;;4213823;33;21004;-79
2023/07/16 08:07:22;;;;;;;11.00;4.50;;;;;;;;;;4225180;33;20061;-78
2023/07/16 08:09:48;;;;;;;5.72;4.40;;;;;;;;;;4250928;33;20064;-78
2023/07/16 08:12:14;;;;;;;4.87;3.85;;;;;;;;;;4255967;33;20101;-82
2023/07/16 08:14:41;;;;;;;10.68;4.28;;;;;;;;;;4288303;33;20045;-81
2023/07/16 08:17:08;;;;;;;5.37;3.53;;;;;;;;;;4298569;33;20104;-80
2023/07/16 08:19:34;;;;;;;5.50;3.67;;;;;;;;;;4294245;33;20041;-80
2023/07/16 08:22:00;;;;;;;10.48;3.03;;;;;;;;;;4258619;33;20072;-80
2023/07/16 08:24:26;;;;;;;11.60;3.30;;;;;;;;;;4256807;33;20046;-78
2023/07/16 08:26:53;;;;;;;9.93;3.03;;;;;;;;;;4249331;33;20046;-82
2023/07/16 08:29:19;;;;;;;11.70;2.90;;;;;;;;;;4252086;33;20098;-77
2023/07/16 08:31:45;;;;;;;8.25;2.72;;;;;;;;;;4250766;33;20041;-77
2023/07/16 08:34:12;;;;;;;11.98;3.28;;;;;;;;;;4220933;34;20054;-80
2023/07/16 08:36:38;;;;;;;6.35;3.75;;;;;;;;;;4222775;34;20120;-79
2023/07/16 08:39:05;;;;;;;3.22;2.95;;;;;;;;;;4220623;34;20164;-81
2023/07/16 08:41:32;;;;;;;3.60;3.30;;;;;;;;;;4194822;34;20063;-79
2023/07/16 08:43:58;;;;;;;7.50;2.80;;;;;;;;;;4192724;34;20081;-80
2023/07/16 08:46:24;;;;;;;8.15;3.00;;;;;;;;;;4192604;34;20052;-77
2023/07/16 08:48:50;;;;;;;8.45;3.22;;;;;;;;;;4174173;34;20044;-76
2023/07/16 08:51:20;;;;;;;2.58;2.33;;;;;;;;;;4178076;34;20091;-76
2023/07/16 08:53:47;;;;;;;5.15;2.70;;;;;;;;;;4190702;34;20877;-77
2023/07/16 08:56:14;;;;;;;7.12;3.00;;;;;;;;;;4194660;34;20051;-80
2023/07/16 08:58:42;;;;;;;3.72;3.42;;;;;;;;;;4195475;34;20044;-83
2023/07/16 09:01:10;;;;;;;11.02;2.65;;;;;;;;;;4193844;34;20420;-82
2023/07/16 09:03:38;;;;;;;3.65;2.30;;;;;;;;;;4194748;34;20211;-79
2023/07/16 09:06:04;;;;;;;6.80;3.37;;;;;;;;;;4213101;34;20042;-84
2023/07/16 09:08:31;;;;;;;7.95;2.72;;;;;;;;;;4204374;34;20047;-79
2023/07/16 09:10:59;;;;;;;13.88;2.92;;;;;;;;;;4200658;34;20055;-82
2023/07/16 09:13:26;;;;;;;3.80;2.42;;;;;;;;;;4229467;33;20073;-75
2023/07/16 09:15:57;;;;;;;7.80;3.37;;;;;;;;;;4236272;33;20582;-77
2023/07/16 09:18:24;;;;;;;4.93;2.37;;;;;;;;;;4236399;33;20054;-77
2023/07/16 09:20:57;;;;;;;2.35;2.25;;;;;;;;;;4267259;33;20391;-76
2023/07/16 09:23:29;;;;;;;6.35;3.42;;;;;;;;;;4275713;33;20063;-76
2023/07/16 09:25:56;;;;;;;4.07;2.40;;;;;;;;;;4258038;33;20394;-77
2023/07/16 09:28:23;;;;;;;7.32;2.30;;;;;;;;;;4257274;33;20092;-77
2023/07/16 09:30:51;;;;;;;5.32;2.45;;;;;;;;;;4256393;33;20444;-74
2023/07/16 09:33:18;;;;;;;2.37;2.22;;;;;;;;;;4255955;33;20078;-76
2023/07/16 09:35:47;;;;;;;2.47;2.28;;;;;;;;;;4257827;33;20100;-77
2023/07/16 09:38:13;;;;;;;2.35;2.20;;;;;;;;;;4243740;33;20110;-76
2023/07/16 09:40:43;;;;;;;2.22;2.12;;;;;;;;;;4243957;33;20070;-78
2023/07/16 09:43:10;;;;;;;2.12;2.03;;;;;;;;;;4229915;33;20050;-77
2023/07/16 09:45:37;;;;;;;3.55;2.00;;;;;;;;;;4242959;33;20398;-77
2023/07/16 09:48:06;;;;;;;8.35;2.62;;;;;;;;;;4243493;33;20471;-78
2023/07/16 09:50:34;;;;;;;3.65;2.47;;;;;;;;;;4243923;33;20072;-77
2023/07/16 09:53:03;;;;;;;2.05;1.77;;;;;;;;;;4242559;33;20038;-78
2023/07/16 09:55:31;;;;;;;1.80;1.70;;;;;;;;;;4220530;34;20405;-76
2023/07/16 09:57:58;;;;;;;1.70;1.70;;;;;;;;;;4235170;33;20039;-77
2023/07/16 10:00:25;;;;;;;2.85;2.08;;;;;;;;;;4221357;34;20050;-76
2023/07/16 10:02:54;;;;;;;2.58;2.37;;;;;;;;;;4221685;34;20450;-76
2023/07/16 10:05:25;;;;;;;4.62;2.10;;;;;;;;;;4208856;34;20050;-76
2023/07/16 10:07:52;;;;;;;4.40;2.00;;;;;;;;;;4222180;34;20046;-77
2023/07/16 10:10:19;;;;;;;2.30;2.20;;;;;;;;;;4221464;34;20073;-76
2023/07/16 10:12:56;;;;;;;1.83;1.80;;;;;;;;;;4222288;34;20417;-76
2023/07/16 10:15:26;;;;;;;7.87;1.85;;;;;;;;;;4219621;34;20356;-76
2023/07/16 10:17:52;;;;;;;7.95;2.08;;;;;;;;;;4208485;34;20039;-76
2023/07/16 10:20:28;;;;;;;9.43;2.50;;;;;;;;;;4221336;34;20113;-76
2023/07/16 10:22:54;;;;;;;2.05;1.95;;;;;;;;;;4220044;34;20039;-77
2023/07/16 10:25:21;;;;;;;2.55;1.67;;;;;;;;;;4221453;34;20062;-77
2023/07/16 10:27:48;;;;;;;4.28;1.83;;;;;;;;;;4215921;34;20086;-77
2023/07/16 10:30:15;;;;;;;5.00;2.42;;;;;;;;;;4193723;34;20466;-76
2023/07/16 10:32:42;;;;;;;1.73;1.73;;;;;;;;;;4214686;34;20046;-77
2023/07/16 10:35:09;;;;;;;2.97;2.28;;;;;;;;;;4212494;34;20106;-77
2023/07/16 10:37:35;;;;;;;1.73;1.62;;;;;;;;;;4215763;34;20346;-75
2023/07/16 10:40:03;;;;;;;3.80;1.83;;;;;;;;;;4193314;34;20080;-75
2023/07/16 10:42:30;;;;;;;4.28;1.40;;;;;;;;;;4193459;34;20084;-76
2023/07/16 10:44:59;;;;;;;3.40;1.83;;;;;;;;;;4177548;34;20116;-76
2023/07/16 10:47:33;;;;;;;2.10;1.90;;;;;;;;;;4183795;34;20039;-77
2023/07/16 10:50:00;;;;;;;6.60;2.12;;;;;;;;;;4192639;34;20055;-76
2023/07/16 10:52:26;;;;;;;14.40;1.98;;;;;;;;;;4180144;34;20484;-76
2023/07/16 10:54:57;;;;;;;9.93;8.27;;;;;;;;;;4179969;34;20488;-80
2023/07/16 10:57:33;;;;;;;4.15;3.78;;;;;;;;;;4178900;34;20073;-80
2023/07/16 11:00:01;;;;;;;4.05;2.10;;;;;;;;;;4178514;34;20056;-78
2023/07/16 11:02:28;;;;;;;3.33;2.10;;;;;;;;;;4359205;28;20080;-77
2023/07/16 11:04:57;;;;;;;2.12;2.00;;;;;;;;;;4221302;33;20383;-77
2023/07/16 11:07:23;;;;;;;2.80;1.83;;;;;;;;;;4221754;33;20043;-77
2023/07/16 11:09:51;;;;;;;6.45;2.15;;;;;;;;;;4220872;33;20084;-77
2023/07/16 11:12:19;;;;;;;11.45;2.70;;;;;;;;;;4220337;33;20046;-79
2023/07/16 11:14:47;;;;;;;2.55;2.35;;;;;;;;;;4220809;34;20548;-76
2023/07/16 11:17:14;;;;;;;2.60;1.87;;;;;;;;;;4203182;34;20130;-77
2023/07/16 11:19:42;;;;;;;3.12;1.87;;;;;;;;;;4202135;34;20583;-79
2023/07/16 11:22:09;;;;;;;2.42;1.80;;;;;;;;;;4243653;33;20048;-77
2023/07/16 11:24:38;;;;;;;2.53;1.87;;;;;;;;;;4239993;33;20068;-78
2023/07/16 11:27:06;;;;;;;3.60;1.70;;;;;;;;;;4242555;33;20100;-78
2023/07/16 11:29:38;;;;;;;1.40;1.37;;;;;;;;;;4251964;33;20432;-77
2023/07/16 11:32:06;;;;;;;2.33;2.22;;;;;;;;;;4271061;33;20053;-77
2023/07/16 11:34:32;;;;;;;3.33;2.62;;;;;;;;;;4267776;33;20423;-79
2023/07/16 11:37:10;;;;;;;1.70;1.60;;;;;;;;;;4278403;33;20045;-78
2023/07/16 11:39:37;;;;;;;3.35;1.90;;;;;;;;;;4278081;33;20058;-80
2023/07/16 11:42:04;;;;;;;1.65;1.55;;;;;;;;;;4278885;33;20059;-79
2023/07/16 11:44:34;;;;;;;3.22;2.00;;;;;;;;;;4276973;33;20094;-80
2023/07/16 11:47:00;;;;;;;3.85;1.60;;;;;;;;;;4278582;33;21049;-79
2023/07/16 11:49:26;;;;;;;5.45;1.83;;;;;;;;;;4249347;33;20191;-79
2023/07/16 11:51:52;;;;;;;6.90;1.90;;;;;;;;;;4251047;33;20042;-79
2023/07/16 11:54:19;;;;;;;1.80;1.70;;;;;;;;;;4249631;33;20391;-78
2023/07/16 11:56:47;;;;;;;5.03;1.50;;;;;;;;;;4246743;33;20388;-79
2023/07/16 11:59:13;;;;;;;2.05;1.27;;;;;;;;;;4240500;33;20575;-77
2023/07/16 12:01:39;;;;;;;1.67;1.48;;;;;;;;;;4241475;33;20061;-78
2023/07/16 12:04:12;;;;;;;3.03;1.10;;;;;;;;;;4215932;33;20047;-76
2023/07/16 12:06:38;;;;;;;5.53;1.37;;;;;;;;;;4209690;34;20065;-78
2023/07/16 12:09:04;;;;;;;1.35;1.35;;;;;;;;;;4208225;34;20051;-77
2023/07/16 12:11:31;;;;;;;5.00;1.70;;;;;;;;;;4182264;34;20044;-78
2023/07/16 12:13:57;;;;;;;1.48;1.40;;;;;;;;;;4182447;34;20447;-78
2023/07/16 12:16:30;;;;;;;1.42;1.20;;;;;;;;;;4181877;34;20105;-78
2023/07/16 12:18:57;;;;;;;2.90;1.80;;;;;;;;;;4180372;34;20066;-81
2023/07/16 12:21:23;;;;;;;1.35;1.25;;;;;;;;;;4205450;34;20055;-78
2023/07/16 12:23:49;;;;;;;1.62;1.62;;;;;;;;;;4209677;34;20121;-77
2023/07/16 12:26:15;;;;;;;5.55;1.58;;;;;;;;;;4203472;34;20484;-78
2023/07/16 12:28:42;;;;;;;1.48;1.37;;;;;;;;;;4208491;34;20040;-79
2023/07/16 12:31:07;;;;;;;1.58;1.48;;;;;;;;;;4207360;34;20388;-77
2023/07/16 12:33:34;;;;;;;7.57;1.50;;;;;;;;;;4209865;34;20169;-77
2023/07/16 12:36:00;;;;;;;4.78;1.30;;;;;;;;;;4209814;34;20150;-78
2023/07/16 12:38:26;;;;;;;1.70;1.60;;;;;;;;;;4210245;34;20055;-78
2023/07/16 12:40:52;;;;;;;1.20;1.20;;;;;;;;;;4214025;33;20081;-79
2023/07/16 12:43:19;;;;;;;3.58;1.52;;;;;;;;;;4222905;34;20113;-77
2023/07/16 12:45:48;;;;;;;1.80;1.67;;;;;;;;;;4223674;34;20377;-77
2023/07/16 12:48:46;;;;;;;1.20;1.15;;;;;;;;;;4226807;33;20469;-79
2023/07/16 12:51:20;;;;;;;1.83;1.33;;;;;;;;;;4238099;33;20051;-77
2023/07/16 12:53:47;;;;;;;4.03;1.08;;;;;;;;;;4257439;33;20063;-77
2023/07/16 12:56:14;;;;;;;1.20;1.20;;;;;;;;;;4265562;33;20050;-78
2023/07/16 12:58:41;;;;;;;1.33;1.30;;;;;;;;;;4266612;33;20050;-81
2023/07/16 13:01:07;;;;;;;1.62;1.52;;;;;;;;;;4263204;33;20069;-77
2023/07/16 13:03:34;;;;;;;2.05;1.45;;;;;;;;;;4264998;33;20096;-76
2023/07/16 13:06:00;;;;;;;6.87;5.85;;;;;;;;;;4266867;33;20085;-77
2023/07/16 13:08:26;;;;;;;3.12;1.52;;;;;;;;;;4266448;33;20049;-78
2023/07/16 13:10:54;;;;;;;3.40;1.35;;;;;;;;;;4266139;33;20053;-76
2023/07/16 13:13:20;;;;;;;2.78;1.27;;;;;;;;;;4264383;33;20792;-79
2023/07/16 13:15:46;;;;;;;5.55;1.40;;;;;;;;;;4265165;33;20348;-77
2023/07/16 13:18:13;;;;;;;4.97;1.60;;;;;;;;;;4265718;33;20434;-78
2023/07/16 13:20:39;;;;;;;3.80;1.60;;;;;;;;;;4251378;33;20030;-78
2023/07/16 13:23:05;;;;;;;1.58;1.48;;;;;;;;;;4218844;33;20393;-79
2023/07/16 13:25:31;;;;;;;2.95;1.62;;;;;;;;;;4197731;34;20051;-79
2023/07/16 13:27:58;;;;;;;1.58;1.48;;;;;;;;;;4207511;34;20497;-78
2023/07/16 13:30:23;;;;;;;3.22;1.42;;;;;;;;;;4195278;34;20089;-78
2023/07/16 13:32:50;;;;;;;3.40;1.33;;;;;;;;;;4186075;34;20129;-79
2023/07/16 13:35:16;;;;;;;1.30;1.20;;;;;;;;;;4179468;34;20057;-77
2023/07/16 13:37:42;;;;;;;6.43;1.40;;;;;;;;;;4179952;34;20083;-76
2023/07/16 13:40:09;;;;;;;8.40;1.35;;;;;;;;;;4181876;34;20052;-77
2023/07/16 13:42:35;;;;;;;6.18;1.65;;;;;;;;;;4181956;34;20115;-77
2023/07/16 13:45:01;;;;;;;1.60;1.50;;;;;;;;;;4181232;34;20047;-77
2023/07/16 13:47:27;;;;;;;2.62;1.40;;;;;;;;;;4166748;34;20044;-78
2023/07/16 13:49:53;;;;;;;2.10;1.40;;;;;;;;;;4152374;34;20049;-76
2023/07/16 13:52:19;;;;;;;4.03;1.40;;;;;;;;;;4143784;34;20049;-78
2023/07/16 13:54:46;;;;;;;1.90;1.80;;;;;;;;;;4160675;34;20049;-77
2023/07/16 13:57:18;;;;;;;2.37;1.83;;;;;;;;;;4167063;34;20072;-76
2023/07/16 13:59:44;;;;;;;1.85;1.70;;;;;;;;;;4165911;34;20036;-79
2023/07/16 14:02:11;;;;;;;2.03;1.85;;;;;;;;;;4167277;34;20897;-78
2023/07/16 14:04:37;;;;;;;5.57;1.80;;;;;;;;;;4167132;34;20454;-77
2023/07/16 14:07:03;;;;;;;1.87;1.80;;;;;;;;;;4167350;34;20090;-78
2023/07/16 14:09:29;;;;;;;1.60;1.50;;;;;;;;;;4167862;34;20085;-77
2023/07/16 14:14:29;;;;;;;1.70;1.60;;;;;;;;;;4183873;34;20389;-77
2023/07/16 14:16:55;;;;;;;4.75;1.55;;;;;;;;;;4194815;34;20343;-77
2023/07/16 14:19:22;;;;;;;3.83;1.62;;;;;;;;;;4206454;34;20058;-77
2023/07/16 14:21:48;;;;;;;1.35;1.35;;;;;;;;;;4220363;34;20043;-78
2023/07/16 14:24:14;;;;;;;4.25;1.37;;;;;;;;;;4220618;34;20065;-77
2023/07/16 14:26:40;;;;;;;2.60;1.77;;;;;;;;;;4222681;34;20116;-78
2023/07/16 14:29:06;;;;;;;1.70;1.60;;;;;;;;;;4222895;34;20047;-77
2023/07/16 14:31:33;;;;;;;3.92;1.58;;;;;;;;;;4222878;34;20122;-79
2023/07/16 14:33:59;;;;;;;3.70;1.70;;;;;;;;;;4220842;34;20059;-80
2023/07/16 14:36:25;;;;;;;3.67;2.05;;;;;;;;;;4220788;34;20053;-78
2023/07/16 14:38:51;;;;;;;3.85;1.55;;;;;;;;;;4222347;34;20054;-78
2023/07/16 14:41:18;;;;;;;3.78;2.12;;;;;;;;;;4222165;34;20055;-77
2023/07/16 14:43:50;;;;;;;3.45;1.70;;;;;;;;;;4244455;33;20046;-77
2023/07/16 14:46:16;;;;;;;3.72;1.50;;;;;;;;;;4249278;33;20450;-77
2023/07/16 14:48:46;;;;;;;1.30;1.30;;;;;;;;;;4250324;33;20544;-78
2023/07/16 14:51:12;;;;;;;1.50;1.40;;;;;;;;;;4251074;33;20068;-78
2023/07/16 14:53:39;;;;;;;4.28;1.37;;;;;;;;;;4236507;33;20054;-78
2023/07/16 14:56:05;;;;;;;3.00;1.52;;;;;;;;;;4235033;33;20094;-80
2023/07/16 14:58:32;;;;;;;8.07;1.80;;;;;;;;;;4223559;33;20050;-78
2023/07/16 15:01:03;;;;;;;6.93;1.60;;;;;;;;;;4230973;33;20042;-78
2023/07/16 15:03:30;;;;;;;1.92;1.75;;;;;;;;;;4249054;33;20046;-78
2023/07/16 15:05:57;;;;;;;3.53;1.92;;;;;;;;;;4249944;33;20080;-78
2023/07/16 15:08:24;;;;;;;1.70;1.58;;;;;;;;;;4247566;33;20463;-78
2023/07/16 15:10:50;;;;;;;1.85;1.35;;;;;;;;;;4250896;33;20083;-78
2023/07/16 15:13:16;;;;;;;4.18;1.62;;;;;;;;;;4250454;33;20050;-78
2023/07/16 15:15:46;;;;;;;2.20;1.98;;;;;;;;;;4250134;33;20125;-78
2023/07/16 15:18:13;;;;;;;2.40;1.92;;;;;;;;;;4250938;33;20049;-78
2023/07/16 15:20:39;;;;;;;4.72;1.75;;;;;;;;;;4233827;33;20072;-81
2023/07/16 15:23:05;;;;;;;2.08;1.50;;;;;;;;;;4235606;33;20069;-78
2023/07/16 15:25:31;;;;;;;1.80;1.73;;;;;;;;;;4235966;33;20047;-77
2023/07/16 15:27:59;;;;;;;2.87;1.92;;;;;;;;;;4235498;33;20064;-77
2023/07/16 15:30:25;;;;;;;1.20;1.17;;;;;;;;;;4235873;33;20046;-78
2023/07/16 15:32:52;;;;;;;1.27;1.27;;;;;;;;;;4237507;33;20656;-77
2023/07/16 15:35:18;;;;;;;7.03;1.60;;;;;;;;;;4237481;33;20125;-77
2023/07/16 15:37:44;;;;;;;5.47;1.50;;;;;;;;;;4238559;33;20055;-78
2023/07/16 15:40:14;;;;;;;9.35;1.95;;;;;;;;;;4238520;33;20056;-78
2023/07/16 15:42:40;;;;;;;1.87;1.60;;;;;;;;;;4238512;33;20071;-78
2023/07/16 15:45:09;;;;;;;4.22;1.45;;;;;;;;;;4236780;33;20074;-80
2023/07/16 15:47:36;;;;;;;1.52;1.42;;;;;;;;;;4238309;33;20051;-78
2023/07/16 15:50:02;;;;;;;1.75;1.65;;;;;;;;;;4238362;33;20384;-79
2023/07/16 15:52:28;;;;;;;1.35;1.35;;;;;;;;;;4252033;33;20046;-78
2023/07/16 15:55:00;;;;;;;1.62;1.60;;;;;;;;;;4253923;33;20084;-78
2023/07/16 15:57:26;;;;;;;1.95;1.85;;;;;;;;;;4255012;33;20068;-78
2023/07/16 15:59:52;;;;;;;3.17;1.40;;;;;;;;;;4254592;33;20059;-78
2023/07/16 16:02:19;;;;;;;2.05;1.58;;;;;;;;;;4272832;33;20062;-79
2023/07/16 16:04:45;;;;;;;7.95;2.05;;;;;;;;;;4280042;33;20350;-78
2023/07/16 16:07:11;;;;;;;1.60;1.50;;;;;;;;;;4251508;33;20043;-78
2023/07/16 16:09:37;;;;;;;1.60;1.35;;;;;;;;;;4252416;33;20067;-76
2023/07/16 16:12:04;;;;;;;2.42;1.52;;;;;;;;;;4252262;33;20553;-78
2023/07/16 16:14:30;;;;;;;1.37;1.30;;;;;;;;;;4252319;33;20074;-78
2023/07/16 16:16:56;;;;;;;1.80;1.58;;;;;;;;;;4251405;33;20073;-78
2023/07/16 16:19:24;;;;;;;1.58;1.40;;;;;;;;;;4253318;33;20053;-76
2023/07/16 16:21:50;;;;;;;2.25;1.40;;;;;;;;;;4252918;33;20081;-77
2023/07/16 16:24:16;;;;;;;3.47;1.42;;;;;;;;;;4253396;33;20054;-77
2023/07/16 16:26:43;;;;;;;1.50;1.20;;;;;;;;;;4253175;33;20043;-76
2023/07/16 16:29:09;;;;;;;4.25;1.25;;;;;;;;;;4251553;33;20045;-77
2023/07/16 16:31:35;;;;;;;1.00;1.00;;;;;;;;;;4215002;34;20194;-77
2023/07/16 16:34:02;;;;;;;1.10;1.10;;;;;;;;;;4212091;34;20053;-77
2023/07/16 16:36:28;;;;;;;1.37;1.20;;;;;;;;;;4213398;34;20050;-77
2023/07/16 16:38:54;;;;;;;1.25;1.20;;;;;;;;;;4238693;33;20079;-80
2023/07/16 16:41:21;;;;;;;1.15;1.15;;;;;;;;;;4242174;33;20086;-76
2023/07/16 16:43:46;;;;;;;2.30;0.98;;;;;;;;;;4243608;33;20134;-77